Time;durP1;ratioP1;P1;durP2;ratioP2;P2;SDS_P1;SDS_P2;PMS_P1;PMS_P2;Temp;Humidity;BMP_temperature;BMP_pressure;BME280_temperature;BME280_humidity;BME280_pressure;Samples;Min_cycle;Max_cycle;Signal;HPM_P1;HPM_P2
2021/05/07 04:00:34;;;;;;;4.07;3.88;;;6.20;99.90;;;;;;6010840;23;20195;31
2021/05/07 04:03:02;;;;;;;5.25;4.50;;;6.10;99.90;;;;;;4897430;29;20680;-69
2021/05/07 04:05:29;;;;;;;4.43;4.20;;;6.00;99.90;;;;;;4899732;29;20618;-69
2021/05/07 04:08:03;;;;;;;4.63;4.22;;;5.90;99.90;;;;;;4899904;29;20242;-69
2021/05/07 04:10:32;;;;;;;5.13;4.72;;;6.00;99.90;;;;;;4899504;29;20318;-68
2021/05/07 04:15:42;;;;;;;5.80;4.40;;;5.90;99.90;;;;;;4899483;29;20684;-68
2021/05/07 04:18:09;;;;;;;4.30;3.90;;;5.90;99.90;;;;;;4899880;29;20569;-68
2021/05/07 04:20:35;;;;;;;5.40;4.82;;;5.90;99.90;;;;;;4899741;29;20238;-68
2021/05/07 04:23:01;;;;;;;4.88;4.55;;;5.90;99.90;;;;;;4899637;29;20620;-70
2021/05/07 04:25:28;;;;;;;9.55;5.15;;;5.90;99.90;;;;;;4900030;29;20215;-70
2021/05/07 04:27:54;;;;;;;4.22;3.92;;;5.90;99.90;;;;;;4900001;29;20703;-69
2021/05/07 04:30:21;;;;;;;4.72;4.32;;;5.90;99.90;;;;;;4899938;29;20211;-70
2021/05/07 04:32:47;;;;;;;4.72;4.43;;;5.90;99.90;;;;;;4899344;29;20226;-71
2021/05/07 04:35:14;;;;;;;4.00;3.80;;;5.80;99.90;;;;;;4900732;29;20207;-70
2021/05/07 04:37:40;;;;;;;8.20;4.72;;;5.90;99.90;;;;;;4901237;29;20549;-70
2021/05/07 04:40:07;;;;;;;5.88;4.60;;;5.90;99.90;;;;;;4903402;29;20720;-70
2021/05/07 04:42:33;;;;;;;6.65;4.90;;;5.90;99.90;;;;;;4901573;29;20218;-70
2021/05/07 04:44:59;;;;;;;4.78;4.38;;;5.90;99.90;;;;;;4901415;29;20223;-70
2021/05/07 04:47:25;;;;;;;5.15;4.50;;;5.80;99.90;;;;;;4898870;29;20566;-70
2021/05/07 04:49:51;;;;;;;7.13;4.95;;;5.80;99.90;;;;;;4898646;29;20222;-70
2021/05/07 04:52:19;;;;;;;6.80;4.82;;;5.80;99.90;;;;;;4898760;29;20231;-70
2021/05/07 04:54:45;;;;;;;4.93;4.63;;;5.80;99.90;;;;;;4899353;29;20215;-70
2021/05/07 04:57:11;;;;;;;6.97;5.28;;;5.80;99.90;;;;;;4898895;29;20270;-70
2021/05/07 04:59:37;;;;;;;6.07;5.30;;;5.80;99.90;;;;;;4898877;29;20227;-71
2021/05/07 05:02:03;;;;;;;5.22;4.88;;;5.80;99.90;;;;;;4898126;29;20235;-70
2021/05/07 05:04:29;;;;;;;5.50;5.00;;;5.80;99.90;;;;;;4898316;29;20215;-70
2021/05/07 05:06:55;;;;;;;6.40;4.30;;;5.80;99.90;;;;;;4898561;29;20226;-70
2021/05/07 05:09:22;;;;;;;4.90;4.50;;;5.80;99.90;;;;;;4898692;29;20237;-70
2021/05/07 05:11:49;;;;;;;5.00;4.50;;;5.80;99.90;;;;;;4898593;29;20621;-70
2021/05/07 05:14:15;;;;;;;7.15;6.47;;;5.70;99.90;;;;;;4898447;29;20211;-70
2021/05/07 05:16:41;;;;;;;6.00;5.50;;;5.80;99.90;;;;;;4897892;29;20211;-71
2021/05/07 05:19:07;;;;;;;9.00;4.53;;;5.80;99.90;;;;;;4898252;29;20215;-72
2021/05/07 05:21:33;;;;;;;8.98;5.15;;;5.80;99.90;;;;;;4898307;29;20244;-72
2021/05/07 05:24:00;;;;;;;7.18;5.30;;;5.70;99.90;;;;;;4897717;29;20574;-73
2021/05/07 05:26:27;;;;;;;8.57;5.00;;;5.70;99.90;;;;;;4898340;29;20369;-73
2021/05/07 05:28:53;;;;;;;9.65;6.13;;;5.70;99.90;;;;;;4898204;29;20234;-73
2021/05/07 05:31:19;;;;;;;4.88;4.57;;;5.70;99.90;;;;;;4897554;29;20327;-73
2021/05/07 05:33:46;;;;;;;6.05;5.53;;;5.70;99.90;;;;;;4897241;29;20242;-72
2021/05/07 05:36:12;;;;;;;5.97;4.60;;;5.80;99.90;;;;;;4897760;29;20215;-73
2021/05/07 05:38:38;;;;;;;5.13;4.63;;;5.70;99.90;;;;;;4898095;29;20211;-73
2021/05/07 05:41:04;;;;;;;5.90;5.40;;;5.70;99.90;;;;;;4897829;29;20254;-73
2021/05/07 05:43:31;;;;;;;7.53;5.03;;;5.70;99.90;;;;;;4897388;29;20219;-73
2021/05/07 05:45:57;;;;;;;7.07;4.72;;;5.70;99.90;;;;;;4897553;29;20211;-69
2021/05/07 05:48:23;;;;;;;4.85;4.53;;;5.70;99.90;;;;;;4897530;29;20231;-69
2021/05/07 05:50:51;;;;;;;5.20;4.68;;;5.70;99.90;;;;;;4897981;29;20231;-68
2021/05/07 05:53:17;;;;;;;6.20;5.25;;;5.80;99.90;;;;;;4898122;29;20223;-69
2021/05/07 05:55:44;;;;;;;4.00;3.65;;;5.80;99.90;;;;;;4897950;29;20211;-69
2021/05/07 05:58:11;;;;;;;9.73;5.22;;;5.80;99.90;;;;;;4897939;29;20215;-69
2021/05/07 06:00:38;;;;;;;4.75;4.35;;;5.80;99.90;;;;;;4897318;29;20239;-69
2021/05/07 06:03:05;;;;;;;4.72;4.40;;;5.80;99.90;;;;;;4897015;29;20212;-70
2021/05/07 06:05:31;;;;;;;4.13;3.80;;;5.80;99.90;;;;;;4897929;29;20207;-69
2021/05/07 06:07:58;;;;;;;6.43;4.82;;;5.80;99.90;;;;;;4897761;29;20231;-69
2021/05/07 06:10:24;;;;;;;4.22;3.92;;;5.80;99.90;;;;;;4897822;29;20215;-69
2021/05/07 06:12:51;;;;;;;4.15;3.80;;;5.90;99.90;;;;;;4897616;29;20397;-69
2021/05/07 06:15:18;;;;;;;5.25;4.10;;;5.90;99.90;;;;;;4897756;29;20247;-70
2021/05/07 06:17:46;;;;;;;4.78;4.57;;;5.90;99.90;;;;;;4896882;29;20626;-70
2021/05/07 06:20:14;;;;;;;6.78;3.80;;;5.90;99.90;;;;;;4897793;29;20211;-69
2021/05/07 06:22:41;;;;;;;4.35;4.05;;;6.00;99.90;;;;;;4897439;29;20216;-69
2021/05/07 06:25:11;;;;;;;4.70;4.10;;;6.00;99.90;;;;;;4897601;29;20215;-70
2021/05/07 06:27:38;;;;;;;4.47;4.18;;;6.00;99.90;;;;;;4897548;29;20584;-70
2021/05/07 06:30:05;;;;;;;5.20;4.82;;;6.00;99.90;;;;;;4897547;29;20219;-70
2021/05/07 06:32:32;;;;;;;4.70;3.80;;;6.00;99.90;;;;;;4896987;29;20571;-71
2021/05/07 06:34:59;;;;;;;4.38;3.17;;;6.00;99.90;;;;;;4897714;29;20218;-73
2021/05/07 06:37:25;;;;;;;4.95;3.88;;;6.00;99.90;;;;;;4898226;29;20211;-73
2021/05/07 06:39:52;;;;;;;3.70;3.50;;;6.00;99.90;;;;;;4898227;29;20282;-73
2021/05/07 06:42:18;;;;;;;4.43;4.13;;;6.10;99.90;;;;;;4897474;29;20235;-73
2021/05/07 06:44:44;;;;;;;4.60;3.72;;;6.20;99.90;;;;;;4897326;29;20242;-72
2021/05/07 06:47:11;;;;;;;3.72;3.45;;;6.20;99.90;;;;;;4896690;29;20219;-73
2021/05/07 06:49:37;;;;;;;3.67;3.38;;;6.20;99.90;;;;;;4896928;29;20231;-73
2021/05/07 06:52:05;;;;;;;5.35;3.38;;;6.30;99.90;;;;;;4896922;29;20738;-73
2021/05/07 06:54:31;;;;;;;3.85;2.90;;;6.30;99.90;;;;;;4898513;29;20279;-73
2021/05/07 06:56:59;;;;;;;7.53;3.35;;;6.40;99.90;;;;;;4897011;29;20675;-74
2021/05/07 06:59:27;;;;;;;3.50;3.20;;;6.50;99.90;;;;;;4897464;29;20294;-73
2021/05/07 07:01:53;;;;;;;3.80;3.50;;;6.50;99.90;;;;;;4897181;29;20263;-73
2021/05/07 07:04:19;;;;;;;2.63;2.40;;;6.60;99.90;;;;;;4897387;29;20218;-73
2021/05/07 07:06:45;;;;;;;4.10;2.63;;;6.70;99.90;;;;;;4897873;29;20215;-73
2021/05/07 07:09:14;;;;;;;3.17;3.08;;;6.70;99.90;;;;;;4897678;29;20231;-73
2021/05/07 07:11:40;;;;;;;3.10;2.83;;;6.90;99.90;;;;;;4898105;29;20618;-73
2021/05/07 07:14:07;;;;;;;3.13;2.92;;;7.00;99.90;;;;;;4897449;29;20215;-74
2021/05/07 07:16:34;;;;;;;2.88;2.67;;;7.10;99.90;;;;;;4897221;29;20631;-72
2021/05/07 07:19:00;;;;;;;2.15;2.05;;;7.40;99.90;;;;;;4897497;29;20207;-73
2021/05/07 07:21:26;;;;;;;2.55;2.33;;;7.50;99.90;;;;;;4897444;29;20326;-69
2021/05/07 07:23:53;;;;;;;2.70;2.50;;;7.70;99.90;;;;;;4896684;29;20698;-69
2021/05/07 07:26:20;;;;;;;2.95;2.75;;;8.00;99.90;;;;;;4896983;29;20211;-69
2021/05/07 07:28:47;;;;;;;2.63;2.40;;;8.30;99.90;;;;;;4896847;29;20689;-69
2021/05/07 07:31:14;;;;;;;2.25;2.15;;;8.40;99.90;;;;;;4896555;29;20231;-69
2021/05/07 07:33:40;;;;;;;2.50;2.40;;;8.60;99.90;;;;;;4896457;29;20207;-68
2021/05/07 07:36:06;;;;;;;2.80;2.70;;;8.80;99.90;;;;;;4897071;29;20660;-69
2021/05/07 07:38:33;;;;;;;2.85;2.75;;;8.70;99.90;;;;;;4897157;29;20672;-69
2021/05/07 07:40:59;;;;;;;2.75;2.55;;;8.60;99.90;;;;;;4896701;29;20241;-72
2021/05/07 07:43:26;;;;;;;3.28;3.17;;;8.50;99.90;;;;;;4896869;29;20283;-68
2021/05/07 07:45:52;;;;;;;2.83;2.63;;;8.40;99.90;;;;;;4897587;29;20219;-68
2021/05/07 07:48:18;;;;;;;3.30;3.20;;;8.40;99.90;;;;;;4899952;29;20652;-70
2021/05/07 07:50:45;;;;;;;3.50;3.28;;;8.40;99.90;;;;;;4900197;29;20283;-69
2021/05/07 07:53:11;;;;;;;3.80;3.40;;;8.30;99.90;;;;;;4900295;29;20211;-69
2021/05/07 07:55:37;;;;;;;3.60;3.40;;;8.30;99.90;;;;;;4900005;29;20727;-69
2021/05/07 07:58:04;;;;;;;3.00;2.90;;;8.20;99.90;;;;;;4900567;29;20217;-69
2021/05/07 08:00:32;;;;;;;3.63;3.47;;;8.20;99.90;;;;;;4900004;29;20335;-69
2021/05/07 08:02:59;;;;;;;3.67;3.47;;;8.20;99.90;;;;;;4899367;29;20222;-69
2021/05/07 08:05:25;;;;;;;4.13;3.92;;;8.20;99.90;;;;;;4899617;29;20207;-69
2021/05/07 08:07:51;;;;;;;3.95;3.85;;;8.30;99.90;;;;;;4899647;29;20219;-69
2021/05/07 08:10:18;;;;;;;4.78;4.40;;;8.40;99.90;;;;;;4899551;29;20222;-71
2021/05/07 08:12:45;;;;;;;4.38;4.00;;;8.40;99.90;;;;;;4899775;29;20211;-69
2021/05/07 08:15:12;;;;;;;4.57;4.20;;;8.50;99.90;;;;;;4899784;29;20267;-69
2021/05/07 08:17:39;;;;;;;4.15;3.95;;;8.80;99.90;;;;;;4898832;29;20207;-71
2021/05/07 08:20:07;;;;;;;3.42;3.33;;;9.00;99.90;;;;;;4899821;29;20203;-70
2021/05/07 08:22:33;;;;;;;3.88;3.78;;;9.20;99.90;;;;;;4899411;29;20247;-71
2021/05/07 08:25:00;;;;;;;4.13;3.83;;;9.50;99.90;;;;;;4899680;29;20211;-71
2021/05/07 08:27:26;;;;;;;3.03;3.03;;;9.60;99.90;;;;;;4899525;29;20271;-72
2021/05/07 08:29:54;;;;;;;4.07;3.88;;;9.50;99.90;;;;;;4899568;29;20231;-71
2021/05/07 08:32:20;;;;;;;3.38;3.15;;;9.50;99.90;;;;;;4898693;29;20231;-71
2021/05/07 08:34:47;;;;;;;2.88;2.78;;;9.30;99.90;;;;;;4899333;29;20227;-71
2021/05/07 08:37:14;;;;;;;3.65;3.55;;;9.20;99.90;;;;;;4899208;29;20212;-73
2021/05/07 08:39:41;;;;;;;3.20;3.00;;;9.20;99.90;;;;;;4899561;29;20297;-72
2021/05/07 08:42:10;;;;;;;3.85;3.60;;;9.20;99.90;;;;;;4899609;29;20287;-72
2021/05/07 08:44:36;;;;;;;3.17;2.97;;;9.30;99.90;;;;;;4899735;29;20219;-72
2021/05/07 08:47:03;;;;;;;4.07;3.10;;;9.50;99.90;;;;;;4899164;29;20214;-72
2021/05/07 08:49:29;;;;;;;3.22;2.88;;;9.70;99.90;;;;;;4898987;29;20242;-72
2021/05/07 08:51:56;;;;;;;2.92;2.72;;;9.60;99.90;;;;;;4899081;29;20238;-73
2021/05/07 08:54:22;;;;;;;2.78;2.65;;;9.40;99.90;;;;;;4898872;29;20215;-72
2021/05/07 08:56:50;;;;;;;3.20;2.95;;;9.30;99.90;;;;;;4898492;29;20215;-73
2021/05/07 08:59:16;;;;;;;3.55;3.35;;;9.30;99.90;;;;;;4898345;29;20218;-72
2021/05/07 09:01:43;;;;;;;4.03;3.63;;;9.30;99.90;;;;;;4898450;29;20239;-73
2021/05/07 09:04:11;;;;;;;3.50;3.30;;;9.40;99.90;;;;;;4898336;29;20233;-73
2021/05/07 09:06:44;;;;;;;2.58;2.58;;;9.40;99.90;;;;;;4898647;29;20219;-73
2021/05/07 09:09:23;;;;;;;3.00;2.90;;;9.50;99.90;;;;;;4899095;29;20287;-73
2021/05/07 09:11:50;;;;;;;2.60;2.60;;;9.60;99.90;;;;;;4898768;29;20770;-73
2021/05/07 09:14:17;;;;;;;4.00;3.00;;;9.80;99.90;;;;;;4898555;29;20215;-74
2021/05/07 09:16:54;;;;;;;3.25;3.08;;;10.10;99.90;;;;;;4898252;29;20211;-74
2021/05/07 09:19:22;;;;;;;3.78;3.58;;;10.30;99.90;;;;;;4898447;29;20614;-74
2021/05/07 09:21:48;;;;;;;5.07;2.67;;;10.30;99.90;;;;;;4898609;29;20242;-74
2021/05/07 09:24:16;;;;;;;2.40;2.30;;;10.40;99.90;;;;;;4898320;29;20715;-74
2021/05/07 09:26:50;;;;;;;2.40;2.25;;;10.50;99.90;;;;;;4898585;29;20215;-74
2021/05/07 09:29:22;;;;;;;2.40;2.20;;;10.70;99.90;;;;;;4898442;29;20234;-74
2021/05/07 09:31:51;;;;;;;1.85;1.85;;;10.70;99.90;;;;;;4897951;29;20719;-74
2021/05/07 09:34:18;;;;;;;2.72;1.85;;;10.90;99.90;;;;;;4897924;29;20215;-74
2021/05/07 09:36:45;;;;;;;2.00;1.98;;;11.00;99.90;;;;;;4898458;29;20211;-75
2021/05/07 09:39:13;;;;;;;2.05;1.90;;;11.10;99.90;;;;;;4898975;29;20270;-74
2021/05/07 09:41:40;;;;;;;1.90;1.80;;;11.10;99.90;;;;;;4898426;29;20644;-75
2021/05/07 09:44:17;;;;;;;2.78;1.40;;;10.90;99.90;;;;;;4898034;29;20262;-74
2021/05/07 09:46:44;;;;;;;1.65;1.55;;;10.30;99.90;;;;;;4898157;29;20222;-74
2021/05/07 09:49:21;;;;;;;2.08;1.98;;;9.30;99.90;;;;;;4898098;29;20235;-74
2021/05/07 09:51:47;;;;;;;1.50;1.50;;;8.70;99.90;;;;;;4900028;29;20655;-74
2021/05/07 09:54:13;;;;;;;1.70;1.70;;;8.50;99.90;;;;;;4899391;29;20223;-73
2021/05/07 09:56:41;;;;;;;2.35;2.00;;;8.30;99.90;;;;;;4898704;29;20215;-73
2021/05/07 09:59:08;;;;;;;2.22;2.05;;;7.90;99.90;;;;;;4899370;29;20672;-73
2021/05/07 10:01:35;;;;;;;2.15;2.05;;;7.70;99.90;;;;;;4905035;29;20641;-73
2021/05/07 10:04:03;;;;;;;2.10;1.85;;;7.20;99.90;;;;;;4907192;29;20222;-74
2021/05/07 10:06:31;;;;;;;2.08;1.98;;;7.00;99.90;;;;;;4906663;29;20230;-74
2021/05/07 10:08:57;;;;;;;1.85;1.85;;;6.80;99.90;;;;;;4901049;29;20231;-73
2021/05/07 10:11:24;;;;;;;2.75;1.80;;;6.70;99.90;;;;;;4902924;29;20230;-74
2021/05/07 10:13:52;;;;;;;2.85;2.10;;;6.70;99.90;;;;;;4900447;29;20215;-74
2021/05/07 10:16:28;;;;;;;4.22;2.05;;;6.70;99.90;;;;;;4897888;29;20302;-74
2021/05/07 10:19:01;;;;;;;2.40;2.30;;;6.80;99.90;;;;;;4900209;29;20210;-74
2021/05/07 10:21:36;;;;;;;2.60;2.50;;;6.80;99.90;;;;;;4908422;29;20293;-73
2021/05/07 10:24:02;;;;;;;2.40;2.30;;;7.00;99.90;;;;;;4907566;29;20241;-73
2021/05/07 10:26:36;;;;;;;2.10;2.00;;;7.30;99.90;;;;;;4903798;29;20215;-73
2021/05/07 10:29:13;;;;;;;2.38;2.28;;;7.60;99.90;;;;;;4902902;29;20350;-73
2021/05/07 10:31:45;;;;;;;3.90;2.60;;;7.70;99.90;;;;;;4899286;29;20593;-73
2021/05/07 10:34:12;;;;;;;2.55;2.45;;;7.90;99.90;;;;;;4898562;29;20238;-73
2021/05/07 10:36:39;;;;;;;2.25;2.25;;;8.00;99.90;;;;;;4898313;29;20283;-73
2021/05/07 10:39:16;;;;;;;3.13;2.92;;;8.20;99.90;;;;;;4897937;29;20219;-73
2021/05/07 10:41:42;;;;;;;2.80;2.70;;;8.40;99.90;;;;;;4897333;29;20243;-73
2021/05/07 10:44:09;;;;;;;6.20;2.50;;;8.50;99.90;;;;;;4897381;29;20212;-73
2021/05/07 10:46:36;;;;;;;3.10;2.90;;;8.60;99.90;;;;;;4896930;29;20206;-73
2021/05/07 10:49:03;;;;;;;3.15;2.97;;;8.90;99.90;;;;;;4896965;29;20231;-73
2021/05/07 10:51:30;;;;;;;2.70;2.50;;;9.30;99.90;;;;;;4897003;29;20715;-73
2021/05/07 10:54:06;;;;;;;2.40;2.30;;;9.60;99.90;;;;;;4897279;29;20211;-73
2021/05/07 10:56:36;;;;;;;1.98;1.98;;;10.00;99.90;;;;;;4897083;29;20211;-73
2021/05/07 10:59:12;;;;;;;2.08;1.98;;;10.00;99.90;;;;;;4897170;29;20243;-73
2021/05/07 11:01:39;;;;;;;1.70;1.70;;;9.60;99.90;;;;;;4896767;29;20245;-73
2021/05/07 11:04:08;;;;;;;1.40;1.40;;;9.20;99.90;;;;;;4896637;29;20215;-73
2021/05/07 11:06:37;;;;;;;1.35;1.35;;;8.90;99.90;;;;;;4897121;29;20569;-74
2021/05/07 11:09:18;;;;;;;1.70;1.60;;;8.80;99.90;;;;;;4897144;29;20231;-74
2021/05/07 11:11:45;;;;;;;3.60;1.40;;;8.70;99.90;;;;;;4897003;29;20238;-74
2021/05/07 11:14:13;;;;;;;1.60;1.60;;;8.80;99.90;;;;;;4896797;29;20221;-73
2021/05/07 11:16:42;;;;;;;1.45;1.15;;;8.80;99.90;;;;;;4896496;29;20215;-72
2021/05/07 11:19:08;;;;;;;1.40;1.30;;;8.90;99.90;;;;;;4896513;29;20212;-73
2021/05/07 11:21:35;;;;;;;0.95;0.90;;;8.90;99.90;;;;;;4898800;29;20247;-72
2021/05/07 11:24:01;;;;;;;2.05;0.95;;;8.90;99.90;;;;;;4900459;29;20207;-72
2021/05/07 11:26:36;;;;;;;1.25;1.25;;;9.00;99.90;;;;;;4900591;29;20211;-72
2021/05/07 11:29:03;;;;;;;1.00;1.00;;;9.30;99.90;;;;;;4900431;29;20234;-73
2021/05/07 11:31:29;;;;;;;1.20;1.20;;;9.40;99.90;;;;;;4900083;29;20227;-73
2021/05/07 11:33:56;;;;;;;1.35;1.35;;;9.50;99.90;;;;;;4900129;29;20207;-72
2021/05/07 11:36:22;;;;;;;2.17;2.08;;;9.50;99.90;;;;;;4900433;29;20278;-72
2021/05/07 11:38:49;;;;;;;1.30;1.30;;;9.60;99.90;;;;;;4900424;29;20215;-72
2021/05/07 11:41:20;;;;;;;3.60;3.47;;;9.70;99.90;;;;;;4900240;29;20299;-73
2021/05/07 11:43:47;;;;;;;2.88;2.75;;;9.80;99.90;;;;;;4900013;29;20218;-73
2021/05/07 11:46:13;;;;;;;1.65;1.50;;;9.80;99.90;;;;;;4900156;29;20637;-72
2021/05/07 11:48:45;;;;;;;1.40;1.40;;;9.70;99.90;;;;;;4899425;29;20227;-72
2021/05/07 11:51:12;;;;;;;1.70;1.63;;;9.80;99.90;;;;;;4899735;29;20239;-71
2021/05/07 11:53:38;;;;;;;2.25;1.33;;;9.90;99.90;;;;;;4900137;29;20254;-73
2021/05/07 11:56:07;;;;;;;1.25;1.15;;;10.00;99.90;;;;;;4899728;29;20214;-73
2021/05/07 11:58:35;;;;;;;0.80;0.80;;;10.00;99.90;;;;;;4899944;29;20215;-73
2021/05/07 12:01:01;;;;;;;1.23;1.23;;;10.00;99.90;;;;;;4899275;29;20343;-72
2021/05/07 12:03:38;;;;;;;1.50;1.48;;;10.10;99.90;;;;;;4899442;29;20211;-68
2021/05/07 12:06:18;;;;;;;1.55;1.50;;;10.20;99.90;;;;;;4899925;29;20321;-69
2021/05/07 12:08:44;;;;;;;1.77;1.20;;;10.20;99.90;;;;;;4900039;29;20597;-69
2021/05/07 12:11:13;;;;;;;1.90;1.80;;;10.40;99.90;;;;;;4899575;29;20242;-69
2021/05/07 12:13:40;;;;;;;1.60;1.50;;;10.50;99.90;;;;;;4899715;29;20694;-69
2021/05/07 12:16:07;;;;;;;1.10;1.10;;;10.60;99.90;;;;;;4899641;29;20223;-69
2021/05/07 12:18:35;;;;;;;1.00;1.00;;;10.80;99.90;;;;;;4899837;29;20271;-69
2021/05/07 12:21:04;;;;;;;1.50;1.50;;;10.90;99.90;;;;;;4899980;29;20227;-70
2021/05/07 12:23:42;;;;;;;1.50;1.50;;;11.00;99.90;;;;;;4899742;29;20210;-69
2021/05/07 12:26:08;;;;;;;2.45;1.40;;;11.20;99.90;;;;;;4899913;29;20211;-69
2021/05/07 12:28:36;;;;;;;1.42;1.33;;;11.10;99.90;;;;;;4899928;29;20231;-69
2021/05/07 12:31:04;;;;;;;1.10;1.10;;;11.00;99.90;;;;;;4899497;29;21326;-69
2021/05/07 12:33:30;;;;;;;1.25;1.25;;;11.00;99.90;;;;;;4899546;29;20310;-68
2021/05/07 12:35:58;;;;;;;1.40;1.30;;;10.80;99.90;;;;;;4899792;29;20219;-69
2021/05/07 12:38:28;;;;;;;1.33;1.33;;;10.60;99.90;;;;;;4899537;29;20664;-68
2021/05/07 12:41:00;;;;;;;1.17;1.13;;;10.60;99.90;;;;;;4899497;29;20231;-68
2021/05/07 12:43:32;;;;;;;1.40;1.38;;;10.70;99.90;;;;;;4899720;29;20208;-69
2021/05/07 12:46:00;;;;;;;3.72;1.65;;;11.00;99.90;;;;;;4898859;29;20297;-69
2021/05/07 12:48:26;;;;;;;4.70;1.30;;;11.10;99.90;;;;;;4898812;29;20249;-69
2021/05/07 12:50:52;;;;;;;2.05;1.10;;;11.20;99.90;;;;;;4899078;29;20234;-69
2021/05/07 12:53:20;;;;;;;1.40;1.40;;;11.30;99.90;;;;;;4899055;29;20218;-71
2021/05/07 12:55:47;;;;;;;1.02;1.02;;;11.20;99.90;;;;;;4898990;29;20215;-70
2021/05/07 12:58:13;;;;;;;1.13;1.13;;;11.10;99.90;;;;;;4899445;29;20211;-70
2021/05/07 13:00:41;;;;;;;1.83;1.48;;;10.90;99.90;;;;;;4898568;29;20243;-71
2021/05/07 13:03:08;;;;;;;1.10;1.10;;;10.80;99.90;;;;;;4898536;29;20234;-70
2021/05/07 13:05:34;;;;;;;1.10;1.10;;;10.70;99.90;;;;;;4899057;29;20218;-71
2021/05/07 13:08:01;;;;;;;0.93;0.93;;;10.70;99.90;;;;;;4898694;29;20246;-72
2021/05/07 13:10:27;;;;;;;1.30;1.25;;;10.70;99.90;;;;;;4898304;29;20604;-71
2021/05/07 13:12:54;;;;;;;1.30;1.20;;;10.90;99.90;;;;;;4898799;29;20223;-69
2021/05/07 13:15:20;;;;;;;1.20;1.20;;;11.00;99.90;;;;;;4898635;29;20215;-70
2021/05/07 13:17:47;;;;;;;1.40;1.30;;;11.20;99.90;;;;;;4898335;29;20219;-69
2021/05/07 13:20:14;;;;;;;1.27;1.27;;;11.20;99.90;;;;;;4898668;29;20215;-71
2021/05/07 13:22:41;;;;;;;1.55;1.55;;;11.00;99.90;;;;;;4898255;29;20211;-71
2021/05/07 13:25:08;;;;;;;1.42;1.42;;;10.70;99.90;;;;;;4898473;29;20535;-69
2021/05/07 13:27:35;;;;;;;1.17;1.17;;;10.50;99.90;;;;;;4898511;29;20238;-69
2021/05/07 13:30:02;;;;;;;1.85;1.30;;;10.40;99.90;;;;;;4898893;29;20239;-69
2021/05/07 13:32:31;;;;;;;2.60;1.48;;;10.20;99.90;;;;;;4897570;29;20227;-70
2021/05/07 13:34:57;;;;;;;1.27;1.20;;;10.00;99.90;;;;;;4898470;29;20302;-69
2021/05/07 13:37:24;;;;;;;1.52;1.02;;;10.00;99.90;;;;;;4898310;29;20215;-71
2021/05/07 13:39:51;;;;;;;1.95;1.15;;;10.10;99.90;;;;;;4898401;29;20207;-73
2021/05/07 13:42:17;;;;;;;1.05;1.05;;;10.30;99.90;;;;;;4898151;29;20247;-71
2021/05/07 13:44:43;;;;;;;1.00;1.00;;;10.60;99.90;;;;;;4898079;29;20219;-71
2021/05/07 13:47:10;;;;;;;0.88;0.88;;;10.80;99.90;;;;;;4897717;29;20211;-71
2021/05/07 13:49:36;;;;;;;1.27;1.20;;;11.00;99.90;;;;;;4897667;29;20315;-71
2021/05/07 13:52:03;;;;;;;1.10;1.00;;;11.10;99.90;;;;;;4897641;29;20238;-76
2021/05/07 13:54:30;;;;;;;1.17;1.17;;;11.20;99.90;;;;;;4898664;29;20231;-68
2021/05/07 13:56:56;;;;;;;0.80;0.80;;;11.20;99.90;;;;;;4898459;29;20215;-70
2021/05/07 13:59:23;;;;;;;1.10;1.08;;;11.30;99.90;;;;;;4898465;29;20215;-68
2021/05/07 14:01:50;;;;;;;1.00;1.00;;;11.30;99.90;;;;;;4898168;29;20655;-70
2021/05/07 14:04:17;;;;;;;1.13;1.13;;;11.40;99.90;;;;;;4897922;29;20648;-72
2021/05/07 14:06:44;;;;;;;0.85;0.85;;;11.30;99.90;;;;;;4897671;29;20317;-69
2021/05/07 14:09:12;;;;;;;1.25;1.25;;;11.30;99.90;;;;;;4898182;29;20239;-70
2021/05/07 14:11:39;;;;;;;1.40;1.30;;;11.30;99.90;;;;;;4898064;29;20730;-69
2021/05/07 14:14:09;;;;;;;1.00;1.00;;;11.40;99.90;;;;;;4897509;29;20221;-68
2021/05/07 14:16:35;;;;;;;1.25;1.15;;;11.40;99.90;;;;;;4897260;29;20234;-68
2021/05/07 14:19:02;;;;;;;1.45;1.10;;;11.40;99.90;;;;;;4897150;29;20207;-69
2021/05/07 14:21:29;;;;;;;0.70;0.70;;;11.40;99.90;;;;;;4897568;29;20235;-70
2021/05/07 14:23:55;;;;;;;1.00;1.00;;;11.40;99.90;;;;;;4897453;29;20691;-69
2021/05/07 14:26:22;;;;;;;1.10;1.05;;;11.40;99.90;;;;;;4897643;29;20259;-69
2021/05/07 14:28:49;;;;;;;1.20;1.10;;;11.50;99.90;;;;;;4897835;29;20322;-69
2021/05/07 14:31:15;;;;;;;0.75;0.75;;;11.50;99.90;;;;;;4897280;29;20231;-70
2021/05/07 14:33:45;;;;;;;0.80;0.80;;;11.50;99.90;;;;;;4896886;29;20211;-69
2021/05/07 14:36:11;;;;;;;1.02;1.02;;;11.50;99.90;;;;;;4897167;29;20219;-70
2021/05/07 14:38:37;;;;;;;0.93;0.93;;;11.60;99.90;;;;;;4897543;29;20215;-69
2021/05/07 14:41:04;;;;;;;1.05;1.05;;;11.60;99.90;;;;;;4897257;29;20231;-69
2021/05/07 14:43:30;;;;;;;1.00;0.98;;;11.60;99.90;;;;;;4896910;29;20680;-71
2021/05/07 14:45:57;;;;;;;1.30;1.23;;;11.50;99.90;;;;;;4896708;29;20215;-71
2021/05/07 14:48:23;;;;;;;1.02;1.00;;;11.50;99.90;;;;;;4896906;29;20215;-71
2021/05/07 14:50:49;;;;;;;1.55;1.15;;;11.40;99.90;;;;;;4896739;29;20235;-71
2021/05/07 14:53:15;;;;;;;1.20;1.20;;;11.40;99.90;;;;;;4896953;29;20215;-71
2021/05/07 14:55:42;;;;;;;2.97;1.10;;;11.30;99.90;;;;;;4896045;29;20222;-71
2021/05/07 14:58:08;;;;;;;1.25;1.25;;;11.30;99.90;;;;;;4897105;29;20211;-71
2021/05/07 15:00:35;;;;;;;1.08;1.08;;;11.40;99.90;;;;;;4896441;29;20239;-71
2021/05/07 15:03:03;;;;;;;1.48;1.40;;;11.60;99.90;;;;;;4896742;29;20303;-70
2021/05/07 15:05:29;;;;;;;1.45;1.38;;;11.70;99.90;;;;;;4897106;29;20238;-71
2021/05/07 15:07:56;;;;;;;1.25;1.17;;;11.70;99.90;;;;;;4897242;29;20215;-71
2021/05/07 15:10:22;;;;;;;1.15;1.15;;;11.70;99.90;;;;;;4897212;29;20275;-72
2021/05/07 15:12:48;;;;;;;1.25;1.25;;;11.70;99.90;;;;;;4897072;29;20257;-71
2021/05/07 15:15:15;;;;;;;1.38;1.38;;;11.70;99.90;;;;;;4897851;29;20211;-71
2021/05/07 15:17:43;;;;;;;1.20;1.10;;;11.60;99.90;;;;;;4896140;29;20270;-71
2021/05/07 15:20:12;;;;;;;2.38;1.38;;;11.40;99.90;;;;;;4897101;29;20666;-71
2021/05/07 15:22:38;;;;;;;1.20;1.20;;;11.20;99.90;;;;;;4896627;29;20207;-70
2021/05/07 15:25:06;;;;;;;2.35;2.15;;;11.30;99.90;;;;;;4896944;29;20207;-70
2021/05/07 15:27:32;;;;;;;1.85;1.75;;;11.40;99.90;;;;;;4896619;29;20259;-71
2021/05/07 15:29:58;;;;;;;1.73;1.73;;;11.50;99.90;;;;;;4896445;29;20270;-71
2021/05/07 15:32:25;;;;;;;2.67;1.80;;;11.40;99.90;;;;;;4896557;29;20599;-71
2021/05/07 15:34:52;;;;;;;1.67;1.67;;;11.40;99.90;;;;;;4896342;29;20234;-72
2021/05/07 15:37:19;;;;;;;2.60;2.50;;;11.30;99.90;;;;;;4896594;29;20296;-70
2021/05/07 15:39:45;;;;;;;1.95;1.90;;;11.30;99.90;;;;;;4896571;29;20208;-70
2021/05/07 15:42:12;;;;;;;1.42;1.42;;;11.20;99.90;;;;;;4896557;29;20242;-70
2021/05/07 15:44:39;;;;;;;1.55;1.55;;;11.20;99.90;;;;;;4897104;29;20584;-73
2021/05/07 15:47:06;;;;;;;2.40;2.35;;;11.20;99.90;;;;;;4902234;29;20215;-73
2021/05/07 15:49:34;;;;;;;2.72;2.63;;;11.30;99.90;;;;;;4901360;29;20263;-72
2021/05/07 15:52:01;;;;;;;2.30;2.30;;;11.40;99.90;;;;;;4898132;29;20657;-69
2021/05/07 15:54:28;;;;;;;2.95;2.10;;;11.40;99.90;;;;;;4896615;29;20557;-69
2021/05/07 15:56:54;;;;;;;1.77;1.77;;;11.40;99.90;;;;;;4896386;29;20207;-69
2021/05/07 15:59:21;;;;;;;2.22;1.50;;;11.20;99.90;;;;;;4896742;29;20211;-69
2021/05/07 16:01:48;;;;;;;1.35;1.35;;;11.20;99.90;;;;;;4896288;29;20602;-69
2021/05/07 16:04:14;;;;;;;1.30;1.30;;;11.40;99.90;;;;;;4896479;29;20207;-70
2021/05/07 16:06:40;;;;;;;1.60;1.50;;;11.70;99.90;;;;;;4897831;29;20306;-72
2021/05/07 16:09:07;;;;;;;1.92;1.80;;;11.90;99.90;;;;;;4901576;29;20305;-73
2021/05/07 16:11:34;;;;;;;1.40;1.40;;;12.10;99.90;;;;;;4902281;29;20606;-72
2021/05/07 16:14:06;;;;;;;1.60;1.50;;;12.10;99.90;;;;;;4902679;29;20215;-73
2021/05/07 16:16:32;;;;;;;1.00;1.00;;;12.20;99.90;;;;;;4901538;29;20310;-73
2021/05/07 16:18:58;;;;;;;1.48;1.48;;;12.40;99.90;;;;;;4901223;29;20640;-72
2021/05/07 16:21:25;;;;;;;1.17;1.00;;;12.50;99.90;;;;;;4899763;29;20317;-72
2021/05/07 16:23:51;;;;;;;1.40;0.80;;;12.50;99.90;;;;;;4899955;29;20309;-72
2021/05/07 16:26:20;;;;;;;2.25;1.30;;;12.50;99.90;;;;;;4899863;29;20225;-72
2021/05/07 16:28:48;;;;;;;0.90;0.90;;;12.50;99.90;;;;;;4899773;29;20211;-72
2021/05/07 16:31:14;;;;;;;0.90;0.90;;;12.20;99.90;;;;;;4899344;29;20264;-71
2021/05/07 16:33:40;;;;;;;1.08;1.08;;;12.10;99.90;;;;;;4899021;29;20669;-71
2021/05/07 16:36:07;;;;;;;0.90;0.85;;;12.10;99.90;;;;;;4899520;29;20294;-72
2021/05/07 16:38:36;;;;;;;1.88;1.88;;;12.10;99.90;;;;;;4899582;29;20238;-72
2021/05/07 16:41:03;;;;;;;1.00;1.00;;;12.00;99.90;;;;;;4899564;29;20301;-72
2021/05/07 16:43:29;;;;;;;0.82;0.82;;;11.90;99.90;;;;;;4899440;29;20226;-72
2021/05/07 16:45:56;;;;;;;0.80;0.80;;;11.80;99.90;;;;;;4899240;29;20217;-72
2021/05/07 16:48:22;;;;;;;3.20;1.10;;;11.70;99.90;;;;;;4898882;29;20255;-72
2021/05/07 16:50:49;;;;;;;0.82;0.75;;;11.70;99.90;;;;;;4899062;29;20247;-72
2021/05/07 16:53:15;;;;;;;1.10;1.10;;;11.80;99.90;;;;;;4898872;29;20684;-72
2021/05/07 16:55:41;;;;;;;1.90;0.90;;;12.00;99.90;;;;;;4899549;29;20211;-72